createdAt,value
2023-01-19T00:00:44.127Z,6.20
2023-01-19T00:03:34.158Z,6.00
2023-01-19T00:06:36.923Z,8.10
2023-01-19T00:09:35.892Z,5.13
2023-01-19T00:12:28.246Z,4.83
2023-01-19T00:15:15.051Z,5.53
2023-01-19T00:18:15.654Z,7.73
2023-01-19T00:21:05.915Z,7.57
2023-01-19T00:23:54.419Z,6.73
2023-01-19T00:26:46.215Z,6.83
2023-01-19T00:29:37.306Z,7.47
2023-01-19T00:32:28.965Z,7.13
2023-01-19T00:35:18.520Z,7.13
2023-01-19T00:38:07.501Z,8.50
2023-01-19T00:40:54.565Z,8.23
2023-01-19T00:43:43.082Z,7.43
2023-01-19T00:46:29.896Z,6.90
2023-01-19T00:49:16.718Z,7.97
2023-01-19T00:52:05.834Z,7.40
2023-01-19T00:54:54.556Z,6.20
2023-01-19T00:57:41.917Z,7.80
2023-01-19T01:00:34.953Z,6.50
2023-01-19T01:03:28.000Z,7.67
2023-01-19T01:06:15.388Z,8.37
2023-01-19T01:09:30.981Z,7.13
2023-01-19T01:12:18.044Z,7.63
2023-01-19T01:15:19.517Z,6.63
2023-01-19T01:18:11.168Z,7.70
2023-01-19T01:21:03.227Z,8.17
2023-01-19T01:23:50.833Z,5.80
2023-01-19T01:26:37.925Z,8.00
2023-01-19T01:29:26.569Z,7.93
2023-01-19T01:32:14.055Z,7.77
2023-01-19T01:35:05.883Z,8.20
2023-01-19T01:37:52.726Z,6.77
2023-01-19T01:40:41.483Z,7.13
2023-01-19T01:43:46.036Z,7.97
2023-01-19T01:46:37.183Z,6.27
2023-01-19T01:49:27.990Z,6.50
2023-01-19T01:52:17.560Z,7.27
2023-01-19T01:55:09.235Z,6.50
2023-01-19T01:58:01.653Z,8.47
2023-01-19T02:01:09.629Z,6.47
2023-01-19T02:03:59.664Z,8.50
2023-01-19T02:07:05.687Z,8.53
2023-01-19T02:10:11.766Z,7.77
2023-01-19T02:13:16.855Z,8.83
2023-01-19T02:16:08.867Z,9.53
2023-01-19T02:18:55.330Z,7.07
2023-01-19T02:21:53.584Z,9.17
2023-01-19T02:24:42.016Z,8.03
2023-01-19T02:27:28.663Z,7.00
2023-01-19T02:30:16.635Z,7.50
2023-01-19T02:33:03.766Z,9.27
2023-01-19T02:35:53.601Z,8.17
2023-01-19T02:38:43.001Z,7.33
2023-01-19T02:41:36.940Z,7.97
2023-01-19T02:44:25.958Z,5.13
2023-01-19T02:47:14.009Z,7.07
2023-01-19T02:50:01.744Z,8.40
2023-01-19T02:52:49.549Z,8.17
2023-01-19T02:55:36.188Z,6.97
2023-01-19T02:58:34.846Z,8.00
2023-01-19T03:01:32.894Z,7.63
2023-01-19T03:04:31.953Z,10.07
2023-01-19T03:07:31.262Z,6.73
2023-01-19T03:10:27.597Z,6.10
2023-01-19T03:13:23.574Z,13.73
2023-01-19T03:16:22.572Z,5.93
2023-01-19T03:19:16.320Z,8.73
2023-01-19T03:22:10.283Z,6.97
2023-01-19T03:25:00.592Z,8.53
2023-01-19T03:27:51.247Z,6.57
2023-01-19T03:30:46.453Z,7.37
2023-01-19T03:33:39.092Z,7.50
2023-01-19T03:36:33.615Z,6.13
2023-01-19T03:39:24.980Z,9.60
2023-01-19T03:42:15.974Z,6.07
2023-01-19T03:45:03.492Z,7.47
2023-01-19T03:47:50.373Z,4.97
2023-01-19T03:50:38.539Z,6.10
2023-01-19T03:53:25.030Z,6.80
2023-01-19T03:56:19.673Z,5.23
2023-01-19T03:59:07.325Z,6.40
2023-01-19T04:01:53.823Z,7.87
2023-01-19T04:04:40.705Z,6.87
2023-01-19T04:07:37.657Z,7.73
2023-01-19T04:10:24.972Z,7.27
2023-01-19T04:13:11.507Z,6.97
2023-01-19T04:16:02.004Z,7.87
2023-01-19T04:18:49.259Z,9.33
2023-01-19T04:21:35.860Z,8.60
2023-01-19T04:24:23.702Z,3.87
2023-01-19T04:27:10.473Z,7.90
2023-01-19T04:29:56.988Z,9.10
2023-01-19T04:32:44.153Z,8.53
2023-01-19T04:35:31.120Z,6.40
2023-01-19T04:38:17.953Z,9.73
2023-01-19T04:41:06.420Z,5.27
2023-01-19T04:43:53.186Z,5.23
2023-01-19T04:46:40.002Z,5.77
2023-01-19T04:49:26.779Z,4.03
2023-01-19T04:52:13.538Z,6.40
2023-01-19T04:55:00.111Z,6.47
2023-01-19T04:57:48.086Z,4.93
2023-01-19T05:00:34.587Z,5.90
2023-01-19T05:03:21.337Z,6.37
2023-01-19T05:06:08.571Z,6.47
2023-01-19T05:08:54.965Z,4.73
2023-01-19T05:11:41.574Z,6.53
2023-01-19T05:14:29.376Z,6.50
2023-01-19T05:17:15.838Z,4.70
2023-01-19T05:20:03.646Z,5.83
2023-01-19T05:22:52.166Z,4.80
2023-01-19T05:25:38.538Z,3.40
2023-01-19T05:28:25.008Z,4.00
2023-01-19T05:31:13.067Z,5.03
2023-01-19T05:34:04.119Z,4.53
2023-01-19T05:36:53.804Z,4.40
2023-01-19T05:39:40.748Z,5.97
2023-01-19T05:42:27.438Z,6.20
2023-01-19T05:45:14.460Z,6.17
2023-01-19T05:48:05.669Z,5.27
2023-01-19T05:50:52.675Z,6.40
2023-01-19T05:53:39.598Z,6.17
2023-01-19T05:56:30.442Z,3.30
2023-01-19T05:59:24.328Z,6.07
2023-01-19T06:02:13.459Z,4.83
2023-01-19T06:05:12.947Z,3.53
2023-01-19T06:08:03.805Z,4.00
2023-01-19T06:10:56.986Z,3.40
2023-01-19T06:13:43.988Z,4.10
2023-01-19T06:16:30.982Z,2.47
2023-01-19T06:19:18.092Z,3.20
2023-01-19T06:22:18.027Z,2.73
2023-01-19T06:25:08.856Z,2.43
2023-01-19T06:28:20.443Z,3.23
2023-01-19T06:31:21.399Z,2.70
2023-01-19T06:34:08.887Z,2.90
2023-01-19T06:36:55.944Z,3.47
2023-01-19T06:40:04.445Z,2.93
2023-01-19T06:43:16.641Z,3.87
2023-01-19T06:46:17.092Z,3.63
2023-01-19T06:49:04.045Z,3.37
2023-01-19T06:51:50.926Z,4.00
2023-01-19T06:55:27.943Z,3.83
2023-01-19T06:59:45.540Z,3.70
2023-01-19T07:03:27.095Z,3.57
2023-01-19T07:06:38.740Z,2.20
2023-01-19T07:09:41.307Z,3.23
2023-01-19T07:12:37.514Z,2.90
2023-01-19T07:15:40.063Z,2.87
2023-01-19T07:18:38.149Z,3.20
2023-01-19T07:21:37.293Z,2.30
2023-01-19T07:25:15.345Z,3.43
2023-01-19T07:28:07.181Z,4.03
2023-01-19T07:31:07.896Z,3.37
2023-01-19T07:33:57.254Z,2.93
2023-01-19T07:37:15.891Z,3.27
2023-01-19T07:40:25.537Z,2.40
2023-01-19T07:43:25.453Z,3.90
2023-01-19T07:46:23.515Z,3.43
2023-01-19T07:49:14.756Z,2.00
2023-01-19T07:52:19.269Z,4.27
2023-01-19T07:55:11.329Z,3.93
2023-01-19T07:57:59.165Z,3.70
2023-01-19T08:00:47.350Z,3.87
2023-01-19T08:03:34.435Z,3.40
2023-01-19T08:06:24.173Z,3.30
2023-01-19T08:09:12.008Z,5.87
2023-01-19T08:11:58.703Z,3.53
2023-01-19T08:14:45.804Z,2.63
2023-01-19T08:17:34.184Z,3.93
2023-01-19T08:20:23.166Z,3.77
2023-01-19T08:23:19.711Z,3.37
2023-01-19T08:26:20.247Z,3.27
2023-01-19T08:29:25.407Z,5.47
2023-01-19T08:32:18.834Z,4.47
2023-01-19T08:35:08.938Z,4.77
2023-01-19T08:37:55.961Z,5.57
2023-01-19T08:40:43.472Z,3.80
2023-01-19T08:43:30.356Z,7.37
2023-01-19T08:46:20.840Z,3.77
2023-01-19T08:49:08.750Z,3.93
2023-01-19T08:56:20.573Z,4.80
2023-01-19T08:59:10.833Z,5.67
2023-01-19T09:01:58.642Z,4.47
2023-01-19T09:04:56.901Z,3.67
2023-01-19T09:07:45.592Z,4.30
2023-01-19T09:10:35.889Z,5.00
2023-01-19T09:13:25.731Z,8.17
2023-01-19T09:16:16.348Z,7.90
2023-01-19T09:19:04.358Z,4.63
2023-01-19T09:21:59.626Z,9.43
2023-01-19T09:25:36.027Z,3.43
2023-01-19T09:28:24.481Z,5.23
2023-01-19T09:31:11.185Z,3.63
2023-01-19T09:33:58.026Z,4.40
2023-01-19T09:36:47.793Z,3.50
2023-01-19T09:39:34.434Z,7.27
2023-01-19T09:43:09.119Z,3.40
2023-01-19T09:46:00.763Z,3.47
2023-01-19T09:49:22.666Z,5.83
2023-01-19T09:52:13.043Z,3.40
2023-01-19T09:55:00.064Z,7.77
2023-01-19T09:57:48.034Z,4.10
2023-01-19T10:00:34.760Z,4.43
2023-01-19T10:03:25.613Z,9.53
2023-01-19T10:06:17.319Z,6.40
2023-01-19T10:09:21.034Z,7.53
2023-01-19T10:12:19.959Z,6.07
2023-01-19T10:15:22.617Z,5.60
2023-01-19T10:18:25.205Z,7.53
2023-01-19T10:21:19.456Z,8.43
2023-01-19T10:24:18.825Z,5.07
2023-01-19T10:27:18.628Z,4.80
2023-01-19T10:30:10.162Z,7.10
2023-01-19T10:32:57.171Z,4.73
2023-01-19T10:35:45.022Z,6.90
2023-01-19T10:38:36.681Z,10.47
2023-01-19T10:41:32.689Z,6.20
2023-01-19T10:44:27.961Z,5.67
2023-01-19T10:47:20.350Z,9.03
2023-01-19T10:50:26.382Z,7.47
2023-01-19T10:53:25.628Z,11.23
2023-01-19T10:56:24.928Z,10.13
2023-01-19T10:59:36.452Z,7.53
2023-01-19T11:02:27.691Z,7.97
2023-01-19T11:05:25.979Z,7.83
2023-01-19T11:08:28.753Z,9.93
2023-01-19T11:11:15.650Z,7.13
2023-01-19T11:14:13.633Z,8.17
2023-01-19T11:17:00.696Z,9.80
2023-01-19T11:19:57.075Z,11.77
2023-01-19T11:22:48.783Z,7.63
2023-01-19T11:25:37.782Z,7.60
2023-01-19T11:28:30.890Z,6.73
2023-01-19T11:31:33.510Z,6.13
2023-01-19T11:34:32.982Z,9.73
2023-01-19T11:37:34.589Z,10.83
2023-01-19T11:40:22.274Z,6.67
2023-01-19T11:43:12.207Z,11.73
2023-01-19T11:46:00.030Z,8.57
2023-01-19T11:48:57.422Z,7.13
2023-01-19T11:51:57.511Z,7.97
2023-01-19T11:54:52.574Z,7.87
2023-01-19T11:57:46.602Z,7.90
2023-01-19T12:00:38.617Z,7.23
2023-01-19T12:03:31.766Z,6.90
2023-01-19T12:06:24.764Z,7.97
2023-01-19T12:09:21.260Z,6.83
2023-01-19T12:12:14.523Z,7.57
2023-01-19T12:15:07.909Z,8.00
2023-01-19T12:18:00.347Z,9.67
2023-01-19T12:20:53.025Z,7.73
2023-01-19T12:24:04.739Z,7.60
2023-01-19T12:26:57.135Z,8.13
2023-01-19T12:29:46.792Z,8.97
2023-01-19T12:32:36.793Z,8.63
2023-01-19T12:36:11.685Z,6.77
2023-01-19T12:39:04.303Z,9.83
2023-01-19T12:42:11.697Z,13.87
2023-01-19T12:45:10.138Z,8.67
2023-01-19T12:47:57.425Z,13.63
2023-01-19T12:50:47.786Z,6.50
2023-01-19T12:53:34.849Z,10.67
2023-01-19T12:56:35.131Z,14.47
2023-01-19T12:59:27.802Z,9.47
2023-01-19T13:02:44.162Z,7.80
2023-01-19T13:05:56.931Z,8.30
2023-01-19T13:09:02.497Z,11.80
2023-01-19T13:12:25.833Z,11.93
2023-01-19T13:15:36.203Z,8.30
2023-01-19T13:18:26.296Z,8.80
2023-01-19T13:21:13.884Z,8.53
2023-01-19T13:24:03.625Z,8.77
2023-01-19T13:27:03.227Z,6.97
2023-01-19T13:29:52.739Z,8.30
2023-01-19T13:32:43.132Z,11.20
2023-01-19T13:35:43.705Z,10.83
2023-01-19T13:38:40.585Z,8.23
2023-01-19T13:41:33.723Z,12.60
2023-01-19T13:44:27.123Z,12.73
2023-01-19T13:47:24.269Z,7.53
2023-01-19T13:50:21.643Z,13.17
2023-01-19T13:53:20.533Z,14.27
2023-01-19T13:56:20.764Z,15.03
2023-01-19T13:59:14.614Z,15.10
2023-01-19T14:02:14.595Z,13.90
2023-01-19T14:05:15.247Z,11.03
2023-01-19T14:08:12.792Z,9.83
2023-01-19T14:11:04.307Z,10.03
2023-01-19T14:13:51.256Z,13.90
2023-01-19T14:16:38.061Z,10.13
2023-01-19T14:19:26.798Z,11.00
2023-01-19T14:22:14.235Z,12.50
2023-01-19T14:25:29.735Z,10.43
2023-01-19T14:28:42.236Z,15.43
2023-01-19T14:31:46.208Z,13.93
2023-01-19T14:34:38.746Z,12.63
2023-01-19T14:37:29.174Z,12.43
2023-01-19T14:40:22.363Z,14.83
2023-01-19T14:43:14.398Z,12.90
2023-01-19T14:46:02.847Z,13.47
2023-01-19T14:48:52.555Z,13.27
2023-01-19T14:51:40.970Z,15.03
2023-01-19T14:54:36.944Z,11.07
2023-01-19T14:57:25.208Z,15.43
2023-01-19T15:00:17.689Z,13.07
2023-01-19T15:03:06.078Z,12.87
2023-01-19T15:05:57.299Z,14.97
2023-01-19T15:09:00.897Z,12.03
2023-01-19T15:11:50.743Z,17.27
2023-01-19T15:14:37.478Z,11.83
2023-01-19T15:17:26.201Z,12.97
2023-01-19T15:20:18.130Z,12.23
2023-01-19T15:23:06.294Z,14.93
2023-01-19T15:26:17.770Z,11.77
2023-01-19T15:29:21.283Z,13.20
2023-01-19T15:32:14.161Z,10.57
2023-01-19T15:35:03.427Z,14.57
2023-01-19T15:37:51.756Z,16.47
2023-01-19T15:40:39.547Z,13.60
2023-01-19T15:43:27.742Z,12.60
2023-01-19T15:46:17.041Z,11.93
2023-01-19T15:49:06.687Z,14.93
2023-01-19T15:51:55.636Z,10.03
2023-01-19T15:54:42.562Z,13.83
2023-01-19T15:57:30.542Z,16.20
2023-01-19T16:00:39.758Z,13.80
2023-01-19T16:03:27.288Z,12.83
2023-01-19T16:06:16.638Z,11.33
2023-01-19T16:09:04.015Z,16.60
2023-01-19T16:11:59.497Z,16.17
2023-01-19T16:14:45.981Z,15.10
2023-01-19T16:17:34.465Z,15.43
2023-01-19T16:20:22.458Z,14.00
2023-01-19T16:23:15.159Z,13.47
2023-01-19T16:26:40.390Z,14.73
2023-01-19T16:30:04.597Z,15.03
2023-01-19T16:32:54.803Z,14.13
2023-01-19T16:35:44.923Z,15.90
2023-01-19T16:38:42.662Z,15.13
2023-01-19T16:41:29.985Z,16.50
2023-01-19T16:44:18.351Z,16.37
2023-01-19T16:47:12.511Z,14.20
2023-01-19T16:50:00.892Z,16.77
2023-01-19T16:52:50.643Z,13.47
2023-01-19T16:55:42.267Z,15.10
2023-01-19T16:58:29.033Z,15.97
2023-01-19T17:01:20.236Z,11.53
2023-01-19T17:04:07.077Z,11.90
2023-01-19T17:06:55.217Z,11.73
2023-01-19T17:09:41.769Z,13.93
2023-01-19T17:12:29.341Z,13.70
2023-01-19T17:15:17.467Z,14.73
2023-01-19T17:18:26.781Z,9.87
2023-01-19T17:21:22.553Z,11.27
2023-01-19T17:24:14.289Z,12.30
2023-01-19T17:27:01.130Z,13.80
2023-01-19T17:29:50.039Z,13.23
2023-01-19T17:32:36.773Z,10.70
2023-01-19T17:35:23.673Z,13.37
2023-01-19T17:38:10.922Z,12.87
2023-01-19T17:40:58.723Z,8.53
2023-01-19T17:43:46.512Z,11.40
2023-01-19T17:46:37.444Z,9.80
2023-01-19T17:49:24.279Z,10.47
2023-01-19T17:52:10.949Z,11.00
2023-01-19T17:55:00.259Z,12.17
2023-01-19T17:57:55.055Z,18.23
2023-01-19T18:00:46.841Z,14.30
2023-01-19T18:03:57.098Z,14.40
2023-01-19T18:07:03.770Z,11.40
2023-01-19T18:09:56.964Z,9.30
2023-01-19T18:12:54.247Z,12.93
2023-01-19T18:16:20.218Z,18.10
2023-01-19T18:19:12.812Z,12.60
2023-01-19T18:22:22.349Z,14.77
2023-01-19T18:25:35.486Z,13.03
2023-01-19T18:28:32.554Z,12.23
2023-01-19T18:31:55.401Z,14.17
2023-01-19T18:34:42.473Z,16.40
2023-01-19T18:37:29.397Z,13.90
2023-01-19T18:40:16.316Z,11.20
2023-01-19T18:43:20.917Z,13.83
2023-01-19T18:46:23.859Z,11.47
2023-01-19T18:49:23.488Z,15.63
2023-01-19T18:52:25.028Z,12.40
2023-01-19T18:55:33.292Z,14.33
2023-01-19T18:58:20.495Z,14.33
2023-01-19T19:01:23.656Z,19.33
2023-01-19T19:04:11.881Z,13.90
2023-01-19T19:07:00.489Z,10.97
2023-01-19T19:09:48.013Z,16.20
2023-01-19T19:12:34.604Z,16.47
2023-01-19T19:15:24.748Z,16.90
2023-01-19T19:18:13.873Z,19.47
2023-01-19T19:21:06.477Z,17.27
2023-01-19T19:23:55.656Z,17.07
2023-01-19T19:26:44.184Z,14.23
2023-01-19T19:29:31.005Z,18.67
2023-01-19T19:32:20.464Z,21.67
2023-01-19T19:35:08.111Z,15.60
2023-01-19T19:37:57.643Z,17.77
2023-01-19T19:40:44.815Z,16.47
2023-01-19T19:43:36.455Z,16.43
2023-01-19T19:46:25.136Z,15.30
2023-01-19T19:49:12.067Z,19.17
2023-01-19T19:51:58.754Z,18.13
2023-01-19T19:54:49.638Z,17.43
2023-01-19T19:57:39.627Z,14.87
2023-01-19T20:00:29.944Z,18.80
2023-01-19T20:03:17.473Z,15.47
2023-01-19T20:06:10.163Z,16.77
2023-01-19T20:08:58.018Z,11.53
2023-01-19T20:11:49.123Z,19.10
2023-01-19T20:14:35.807Z,13.07
2023-01-19T20:17:23.143Z,13.97
2023-01-19T20:20:13.406Z,15.53
2023-01-19T20:23:01.207Z,14.30
2023-01-19T20:25:49.005Z,12.57
2023-01-19T20:28:39.157Z,12.90
2023-01-19T20:31:30.654Z,18.17
2023-01-19T20:34:20.469Z,13.73
2023-01-19T20:37:07.309Z,16.07
2023-01-19T20:39:54.289Z,17.53
2023-01-19T20:42:43.186Z,17.37
2023-01-19T20:45:32.242Z,17.40
2023-01-19T20:48:18.962Z,14.20
2023-01-19T20:51:10.543Z,14.80
2023-01-19T20:53:57.499Z,15.37
2023-01-19T20:56:44.953Z,16.70
2023-01-19T20:59:34.239Z,13.13
2023-01-19T21:02:23.428Z,15.10
2023-01-19T21:05:11.079Z,17.27
2023-01-19T21:07:59.793Z,17.87
2023-01-19T21:10:47.371Z,15.20
2023-01-19T21:13:35.490Z,15.33
2023-01-19T21:16:23.519Z,18.00
2023-01-19T21:19:11.858Z,13.37
2023-01-19T21:21:58.669Z,16.87
2023-01-19T21:24:45.340Z,13.10
2023-01-19T21:27:33.663Z,17.60
2023-01-19T21:30:20.768Z,13.77
2023-01-19T21:33:07.786Z,17.20
2023-01-19T21:35:58.551Z,15.57
2023-01-19T21:38:45.593Z,11.80
2023-01-19T21:41:34.556Z,14.87
2023-01-19T21:44:21.246Z,15.57
2023-01-19T21:47:11.976Z,17.07
2023-01-19T21:49:59.041Z,14.10
2023-01-19T21:52:47.106Z,22.83
2023-01-19T21:55:34.281Z,17.33
2023-01-19T21:58:25.040Z,20.47
2023-01-19T22:01:13.741Z,17.60
2023-01-19T22:04:01.595Z,16.37
2023-01-19T22:06:48.820Z,16.50
2023-01-19T22:09:37.546Z,17.70
2023-01-19T22:12:24.485Z,18.03
2023-01-19T22:15:12.428Z,13.03
2023-01-19T22:17:59.394Z,19.03
2023-01-19T22:20:46.069Z,17.13
2023-01-19T22:23:32.599Z,23.07
2023-01-19T22:26:20.711Z,17.53
2023-01-19T22:29:11.033Z,22.70
2023-01-19T22:31:57.859Z,12.03
2023-01-19T22:34:44.439Z,18.67
2023-01-19T22:37:35.750Z,20.47
2023-01-19T22:40:22.292Z,17.83
2023-01-19T22:43:10.345Z,21.50
2023-01-19T22:45:58.937Z,18.27
2023-01-19T22:48:45.671Z,18.10
2023-01-19T22:51:34.103Z,19.97
2023-01-19T22:54:22.879Z,19.53
2023-01-19T22:57:11.734Z,17.07
2023-01-19T22:59:59.569Z,18.47
2023-01-19T23:02:46.109Z,18.77
2023-01-19T23:05:36.460Z,17.10
2023-01-19T23:08:23.215Z,19.47
2023-01-19T23:11:13.751Z,16.93
2023-01-19T23:14:00.839Z,16.23
2023-01-19T23:16:49.158Z,19.77
2023-01-19T23:19:36.140Z,16.97
2023-01-19T23:22:22.707Z,16.63
2023-01-19T23:25:09.844Z,20.37
2023-01-19T23:27:56.495Z,21.37
2023-01-19T23:30:43.399Z,19.33
2023-01-19T23:33:31.594Z,21.33
2023-01-19T23:36:20.935Z,19.73
2023-01-19T23:39:16.627Z,18.93
2023-01-19T23:42:04.961Z,19.20
2023-01-19T23:44:51.463Z,23.70
2023-01-19T23:47:43.015Z,24.03
2023-01-19T23:50:31.301Z,19.30
2023-01-19T23:53:17.647Z,20.77
2023-01-19T23:56:11.366Z,18.07
2023-01-19T23:59:00.764Z,23.43
